createdAt,value
2023-04-26T00:09:10.071Z,5.75
2023-04-26T00:17:30.476Z,5.40
2023-04-26T00:20:05.621Z,6.43
2023-04-26T00:22:48.162Z,5.45
2023-04-26T00:27:14.396Z,5.25
2023-04-26T00:30:47.681Z,5.72
2023-04-26T00:33:17.122Z,5.75
2023-04-26T00:35:44.425Z,5.70
2023-04-26T00:38:11.648Z,5.72
2023-04-26T00:40:38.985Z,6.82
2023-04-26T00:43:06.989Z,6.90
2023-04-26T00:45:35.565Z,6.20
2023-04-26T00:48:03.715Z,5.07
2023-04-26T00:50:31.931Z,6.15
2023-04-26T00:53:00.092Z,6.22
2023-04-26T00:55:27.616Z,6.38
2023-04-26T00:57:55.520Z,6.07
2023-04-26T01:00:23.236Z,6.10
2023-04-26T01:02:51.660Z,5.97
2023-04-26T01:05:19.250Z,6.47
2023-04-26T01:07:47.170Z,6.05
2023-04-26T01:10:14.440Z,6.78
2023-04-26T01:12:41.952Z,6.68
2023-04-26T01:15:11.617Z,6.30
2023-04-26T01:17:39.563Z,6.60
2023-04-26T01:20:10.028Z,6.50
2023-04-26T01:22:38.653Z,7.55
2023-04-26T01:25:09.287Z,7.22
2023-04-26T01:27:36.751Z,6.03
2023-04-26T01:30:05.084Z,6.28
2023-04-26T01:32:32.534Z,6.22
2023-04-26T01:35:00.937Z,6.40
2023-04-26T01:37:30.586Z,6.13
2023-04-26T01:39:57.967Z,5.15
2023-04-26T01:42:25.420Z,4.85
2023-04-26T01:44:52.670Z,5.43
2023-04-26T01:47:20.394Z,5.25
2023-04-26T01:49:47.741Z,5.82
2023-04-26T01:52:15.096Z,4.70
2023-04-26T01:54:42.468Z,4.70
2023-04-26T01:57:10.224Z,4.70
2023-04-26T01:59:37.556Z,4.78
2023-04-26T02:02:05.557Z,5.50
2023-04-26T02:04:33.345Z,4.65
2023-04-26T02:07:00.704Z,4.97
2023-04-26T02:09:28.034Z,5.10
2023-04-26T02:11:55.423Z,5.20
2023-04-26T02:14:22.729Z,4.60
2023-04-26T02:16:52.013Z,4.78
2023-04-26T02:19:19.396Z,4.53
2023-04-26T02:21:58.139Z,4.75
2023-04-26T02:24:26.229Z,5.78
2023-04-26T02:26:54.812Z,4.38
2023-04-26T02:29:35.911Z,4.35
2023-04-26T02:32:07.994Z,5.28
2023-04-26T02:34:35.752Z,5.03
2023-04-26T02:37:03.063Z,5.03
2023-04-26T02:39:30.508Z,4.70
2023-04-26T02:41:57.833Z,5.63
2023-04-26T02:44:25.321Z,4.50
2023-04-26T02:46:52.736Z,4.72
2023-04-26T02:49:20.069Z,4.35
2023-04-26T02:51:47.546Z,4.35
2023-04-26T02:54:14.882Z,5.65
2023-04-26T02:56:42.132Z,4.85
2023-04-26T02:59:09.468Z,5.20
2023-04-26T03:01:36.871Z,5.15
2023-04-26T03:04:04.454Z,5.32
2023-04-26T03:06:31.922Z,5.03
2023-04-26T03:08:59.247Z,5.07
2023-04-26T03:11:26.619Z,4.72
2023-04-26T03:13:53.926Z,4.85
2023-04-26T03:16:23.237Z,4.82
2023-04-26T03:18:50.854Z,5.55
2023-04-26T03:21:18.379Z,5.03
2023-04-26T03:23:46.193Z,5.22
2023-04-26T03:26:13.496Z,4.57
2023-04-26T03:28:41.900Z,4.10
2023-04-26T03:31:09.406Z,4.55
2023-04-26T03:33:36.934Z,5.30
2023-04-26T03:36:04.587Z,5.13
2023-04-26T03:38:31.848Z,5.35
2023-04-26T03:40:59.120Z,5.05
2023-04-26T03:43:26.398Z,4.75
2023-04-26T03:45:53.712Z,4.80
2023-04-26T03:48:21.111Z,5.68
2023-04-26T03:50:48.367Z,4.43
2023-04-26T03:53:15.722Z,5.80
2023-04-26T03:55:43.086Z,5.68
2023-04-26T03:58:10.516Z,6.38
2023-04-26T04:00:38.806Z,5.82
2023-04-26T04:03:07.385Z,6.22
2023-04-26T04:05:35.244Z,5.95
2023-04-26T04:08:03.081Z,5.78
2023-04-26T04:10:30.672Z,5.40
2023-04-26T04:12:57.949Z,4.97
2023-04-26T04:15:25.287Z,5.25
2023-04-26T04:17:52.646Z,5.07
2023-04-26T04:20:21.469Z,5.68
2023-04-26T04:22:48.902Z,4.93
2023-04-26T04:25:16.527Z,5.47
2023-04-26T04:27:43.877Z,6.07
2023-04-26T04:30:12.437Z,6.05
2023-04-26T04:32:40.581Z,5.15
2023-04-26T04:35:08.765Z,5.45
2023-04-26T04:37:36.070Z,6.13
2023-04-26T04:40:04.166Z,5.88
2023-04-26T04:42:32.307Z,5.57
2023-04-26T04:44:59.823Z,5.55
2023-04-26T04:47:27.152Z,5.88
2023-04-26T04:49:54.451Z,6.43
2023-04-26T04:52:21.923Z,6.20
2023-04-26T04:54:49.235Z,6.47
2023-04-26T04:57:16.951Z,5.95
2023-04-26T04:59:44.313Z,6.20
2023-04-26T05:02:11.696Z,6.03
2023-04-26T05:04:39.334Z,5.72
2023-04-26T05:07:07.041Z,5.75
2023-04-26T05:09:34.412Z,5.32
2023-04-26T05:12:03.169Z,5.97
2023-04-26T05:14:31.373Z,7.13
2023-04-26T05:16:58.930Z,6.53
2023-04-26T05:19:26.267Z,5.78
2023-04-26T05:21:53.652Z,5.75
2023-04-26T05:24:21.400Z,5.85
2023-04-26T05:26:48.738Z,5.65
2023-04-26T05:29:16.789Z,6.68
2023-04-26T05:31:44.525Z,5.55
2023-04-26T05:34:11.798Z,6.60
2023-04-26T05:36:39.141Z,5.32
2023-04-26T05:39:07.324Z,6.13
2023-04-26T05:41:34.614Z,6.05
2023-04-26T05:44:01.973Z,5.88
2023-04-26T05:46:29.449Z,6.88
2023-04-26T05:48:57.150Z,6.80
2023-04-26T05:51:24.712Z,6.35
2023-04-26T05:53:52.238Z,6.32
2023-04-26T05:56:19.893Z,7.18
2023-04-26T05:58:47.795Z,6.18
2023-04-26T06:01:15.059Z,7.05
2023-04-26T06:03:42.739Z,6.30
2023-04-26T06:06:10.199Z,6.32
2023-04-26T06:08:37.458Z,7.50
2023-04-26T06:11:05.192Z,6.35
2023-04-26T06:13:32.548Z,5.18
2023-04-26T06:15:59.927Z,5.65
2023-04-26T06:18:27.231Z,6.65
2023-04-26T06:20:54.470Z,5.18
2023-04-26T06:23:21.781Z,5.40
2023-04-26T06:25:49.091Z,5.68
2023-04-26T06:28:16.422Z,5.50
2023-04-26T06:30:43.837Z,6.15
2023-04-26T06:33:11.458Z,5.93
2023-04-26T06:35:42.266Z,6.10
2023-04-26T06:38:09.681Z,5.03
2023-04-26T06:40:37.346Z,4.78
2023-04-26T06:43:04.659Z,5.35
2023-04-26T06:45:32.412Z,5.20
2023-04-26T06:48:00.965Z,4.80
2023-04-26T06:50:28.242Z,5.45
2023-04-26T06:52:55.585Z,5.22
2023-04-26T06:55:23.027Z,5.57
2023-04-26T06:57:50.871Z,5.38
2023-04-26T07:00:18.433Z,5.75
2023-04-26T07:02:46.283Z,5.00
2023-04-26T07:05:15.353Z,4.72
2023-04-26T07:07:43.030Z,4.63
2023-04-26T07:10:11.300Z,4.50
2023-04-26T07:12:39.052Z,4.45
2023-04-26T07:15:07.046Z,4.07
2023-04-26T07:17:34.436Z,5.55
2023-04-26T07:20:01.843Z,4.50
2023-04-26T07:22:29.140Z,5.50
2023-04-26T07:24:56.409Z,4.47
2023-04-26T07:27:23.858Z,3.83
2023-04-26T07:29:55.430Z,5.55
2023-04-26T07:32:22.915Z,3.88
2023-04-26T07:34:50.291Z,3.63
2023-04-26T07:37:17.573Z,3.78
2023-04-26T07:39:44.859Z,3.92
2023-04-26T07:42:12.386Z,6.65
2023-04-26T07:44:39.728Z,4.90
2023-04-26T07:47:13.791Z,5.15
2023-04-26T07:49:41.450Z,3.40
2023-04-26T07:52:09.579Z,3.92
2023-04-26T07:54:37.115Z,3.42
2023-04-26T07:57:04.626Z,4.63
2023-04-26T07:59:31.889Z,3.45
2023-04-26T08:01:59.295Z,3.75
2023-04-26T08:04:34.456Z,4.00
2023-04-26T08:07:02.370Z,3.58
2023-04-26T08:09:30.825Z,3.08
2023-04-26T08:11:58.452Z,3.10
2023-04-26T08:14:26.119Z,3.95
2023-04-26T08:16:53.756Z,4.00
2023-04-26T08:19:21.770Z,4.25
2023-04-26T08:21:49.060Z,3.78
2023-04-26T08:24:16.414Z,3.58
2023-04-26T08:26:43.785Z,3.47
2023-04-26T08:29:11.073Z,3.45
2023-04-26T08:31:38.570Z,3.45
2023-04-26T08:34:06.403Z,3.53
2023-04-26T08:36:42.466Z,4.40
2023-04-26T08:39:14.358Z,3.47
2023-04-26T08:41:49.967Z,4.00
2023-04-26T08:44:23.845Z,3.80
2023-04-26T08:47:04.854Z,3.53
2023-04-26T08:49:41.586Z,3.90
2023-04-26T08:52:11.721Z,3.35
2023-04-26T08:54:40.707Z,4.13
2023-04-26T08:57:09.621Z,3.63
2023-04-26T08:59:38.314Z,3.50
2023-04-26T09:02:07.559Z,4.07
2023-04-26T09:04:36.220Z,3.63
2023-04-26T09:07:05.303Z,4.07
2023-04-26T09:09:39.744Z,3.97
2023-04-26T09:12:08.027Z,4.22
2023-04-26T09:14:35.725Z,3.85
2023-04-26T09:17:03.275Z,3.40
2023-04-26T09:19:35.888Z,4.13
2023-04-26T09:22:03.690Z,4.22
2023-04-26T09:24:52.384Z,3.45
2023-04-26T09:27:20.598Z,2.72
2023-04-26T09:30:20.998Z,4.55
2023-04-26T09:32:59.529Z,4.03
2023-04-26T09:35:29.919Z,3.28
2023-04-26T09:38:12.667Z,3.72
2023-04-26T09:40:48.469Z,3.80
2023-04-26T09:43:22.692Z,3.50
2023-04-26T09:45:54.671Z,3.92
2023-04-26T09:48:31.263Z,3.28
2023-04-26T09:51:18.925Z,3.67
2023-04-26T09:53:50.990Z,4.53
2023-04-26T09:56:20.035Z,4.45
2023-04-26T09:58:48.660Z,4.55
2023-04-26T10:01:18.150Z,4.15
2023-04-26T10:03:47.230Z,4.43
2023-04-26T10:06:17.050Z,4.15
2023-04-26T10:08:45.427Z,3.80
2023-04-26T10:11:13.127Z,5.28
2023-04-26T10:13:42.227Z,3.88
2023-04-26T10:16:10.409Z,4.53
2023-04-26T10:18:37.976Z,4.47
2023-04-26T10:21:16.935Z,4.95
2023-04-26T10:23:44.818Z,5.18
2023-04-26T10:26:48.607Z,5.22
2023-04-26T10:29:16.258Z,4.45
2023-04-26T10:32:02.544Z,4.63
2023-04-26T10:34:32.113Z,4.70
2023-04-26T10:37:10.358Z,4.57
2023-04-26T10:39:42.111Z,5.07
2023-04-26T10:42:27.393Z,5.07
2023-04-26T10:44:56.973Z,6.25
2023-04-26T10:47:37.326Z,4.90
2023-04-26T10:50:10.075Z,5.00
2023-04-26T10:52:39.592Z,4.20
2023-04-26T10:55:07.938Z,4.70
2023-04-26T10:57:56.446Z,5.05
2023-04-26T11:00:31.674Z,4.47
2023-04-26T11:03:04.338Z,4.40
2023-04-26T11:05:54.686Z,5.38
2023-04-26T11:08:33.268Z,5.80
2023-04-26T11:11:13.777Z,4.88
2023-04-26T11:13:44.575Z,5.88
2023-04-26T11:16:13.958Z,5.03
2023-04-26T11:18:44.048Z,5.07
2023-04-26T11:21:12.935Z,5.05
2023-04-26T11:23:41.020Z,4.97
2023-04-26T11:26:09.538Z,4.63
2023-04-26T11:28:38.322Z,4.57
2023-04-26T11:31:07.485Z,5.13
2023-04-26T11:33:35.054Z,4.85
2023-04-26T11:36:02.940Z,3.92
2023-04-26T11:38:30.422Z,4.88
2023-04-26T11:40:58.737Z,4.50
2023-04-26T11:43:44.418Z,4.13
2023-04-26T11:46:12.297Z,4.72
2023-04-26T11:48:41.045Z,4.82
2023-04-26T11:51:10.564Z,4.10
2023-04-26T11:53:42.744Z,4.88
2023-04-26T11:56:17.342Z,3.78
2023-04-26T11:58:54.078Z,3.83
2023-04-26T12:01:29.333Z,3.08
2023-04-26T12:03:58.464Z,4.20
2023-04-26T12:06:46.609Z,3.28
2023-04-26T12:09:13.977Z,3.78
2023-04-26T12:11:42.488Z,3.50
2023-04-26T12:14:10.130Z,4.28
2023-04-26T12:16:38.130Z,4.38
2023-04-26T12:19:09.169Z,4.07
2023-04-26T12:21:43.953Z,4.97
2023-04-26T12:24:34.309Z,4.65
2023-04-26T12:27:06.833Z,4.28
2023-04-26T12:29:34.517Z,4.13
2023-04-26T12:32:02.959Z,4.32
2023-04-26T12:34:31.127Z,4.70
2023-04-26T12:36:58.604Z,4.80
2023-04-26T12:39:25.979Z,4.78
2023-04-26T12:41:53.441Z,4.00
2023-04-26T12:44:22.481Z,3.97
2023-04-26T12:46:50.352Z,4.78
2023-04-26T12:49:17.796Z,4.90
2023-04-26T12:51:45.171Z,4.88
2023-04-26T12:54:13.843Z,4.47
2023-04-26T12:56:44.559Z,4.18
2023-04-26T12:59:12.156Z,5.18
2023-04-26T13:01:39.675Z,4.68
2023-04-26T13:04:07.217Z,5.18
2023-04-26T13:06:35.928Z,5.15
2023-04-26T13:09:03.847Z,4.53
2023-04-26T13:11:31.261Z,4.57
2023-04-26T13:13:58.630Z,4.82
2023-04-26T13:16:26.418Z,4.28
2023-04-26T13:18:54.471Z,4.32
2023-04-26T13:21:21.921Z,4.63
2023-04-26T13:23:49.166Z,5.35
2023-04-26T13:26:18.284Z,4.95
2023-04-26T13:28:45.706Z,4.55
2023-04-26T13:31:13.162Z,4.82
2023-04-26T13:33:40.662Z,4.10
2023-04-26T13:36:08.154Z,4.47
2023-04-26T13:38:35.428Z,5.18
2023-04-26T13:41:03.222Z,5.63
2023-04-26T13:43:30.554Z,5.05
2023-04-26T13:45:57.953Z,4.90
2023-04-26T13:48:25.402Z,4.50
2023-04-26T13:50:52.885Z,5.03
2023-04-26T13:53:20.176Z,5.18
2023-04-26T13:55:48.124Z,4.28
2023-04-26T13:58:15.732Z,4.63
2023-04-26T14:00:43.375Z,5.03
2023-04-26T14:03:10.875Z,5.25
2023-04-26T14:05:38.359Z,4.40
2023-04-26T14:08:06.255Z,4.80
2023-04-26T14:10:33.569Z,5.30
2023-04-26T14:13:00.921Z,4.28
2023-04-26T14:15:28.867Z,5.32
2023-04-26T14:17:56.381Z,6.05
2023-04-26T14:20:23.827Z,5.55
2023-04-26T14:22:51.425Z,5.13
2023-04-26T14:25:19.058Z,4.13
2023-04-26T14:27:46.652Z,4.90
2023-04-26T14:30:14.576Z,4.55
2023-04-26T14:32:42.075Z,4.13
2023-04-26T14:35:09.654Z,5.05
2023-04-26T14:37:37.230Z,4.63
2023-04-26T14:40:06.470Z,4.68
2023-04-26T14:42:34.325Z,4.35
2023-04-26T14:45:01.735Z,5.53
2023-04-26T14:47:29.555Z,5.28
2023-04-26T14:49:57.727Z,5.57
2023-04-26T14:52:27.155Z,4.35
2023-04-26T14:54:54.524Z,4.50
2023-04-26T14:57:22.435Z,4.32
2023-04-26T14:59:49.741Z,4.78
2023-04-26T15:02:17.267Z,4.55
2023-04-26T15:04:44.988Z,4.88
2023-04-26T15:07:20.989Z,4.85
2023-04-26T15:09:56.054Z,4.53
2023-04-26T15:12:23.439Z,4.80
2023-04-26T15:15:25.452Z,4.15
2023-04-26T15:17:53.106Z,4.20
2023-04-26T15:20:21.023Z,4.53
2023-04-26T15:22:48.984Z,5.15
2023-04-26T15:25:16.501Z,4.43
2023-04-26T15:27:46.114Z,4.03
2023-04-26T15:30:13.701Z,4.10
2023-04-26T15:32:41.178Z,3.90
2023-04-26T15:35:12.513Z,4.30
2023-04-26T15:37:40.050Z,5.00
2023-04-26T15:40:10.529Z,4.47
2023-04-26T15:42:38.643Z,4.85
2023-04-26T15:45:06.545Z,5.05
2023-04-26T15:47:36.609Z,4.32
2023-04-26T15:50:07.894Z,4.78
2023-04-26T15:52:38.542Z,4.68
2023-04-26T15:55:10.531Z,4.68
2023-04-26T15:57:41.125Z,4.25
2023-04-26T16:00:09.802Z,4.10
2023-04-26T16:02:37.681Z,4.25
2023-04-26T16:05:07.056Z,5.25
2023-04-26T16:07:34.467Z,3.83
2023-04-26T16:10:01.828Z,4.10
2023-04-26T16:12:29.240Z,4.30
2023-04-26T16:14:58.205Z,4.38
2023-04-26T16:17:25.723Z,4.30
2023-04-26T16:19:53.065Z,3.92
2023-04-26T16:22:20.430Z,4.30
2023-04-26T16:24:47.818Z,5.38
2023-04-26T16:27:15.091Z,4.00
2023-04-26T16:29:42.486Z,3.92
2023-04-26T16:32:09.763Z,6.15
2023-04-26T16:34:37.037Z,4.38
2023-04-26T16:37:04.355Z,4.43
2023-04-26T16:39:31.936Z,4.32
2023-04-26T16:41:59.309Z,5.50
2023-04-26T16:44:26.678Z,4.93
2023-04-26T16:46:54.090Z,5.47
2023-04-26T16:49:21.523Z,4.70
2023-04-26T16:51:55.154Z,5.25
2023-04-26T16:54:22.509Z,6.05
2023-04-26T16:56:50.062Z,5.03
2023-04-26T16:59:17.443Z,5.13
2023-04-26T17:01:45.000Z,5.28
2023-04-26T17:04:13.609Z,5.47
2023-04-26T17:06:41.261Z,5.22
2023-04-26T17:09:08.796Z,4.88
2023-04-26T17:11:37.506Z,5.70
2023-04-26T17:14:05.207Z,5.47
2023-04-26T17:16:32.506Z,4.32
2023-04-26T17:18:59.930Z,5.00
2023-04-26T17:21:27.347Z,4.82
2023-04-26T17:23:54.863Z,5.13
2023-04-26T17:26:22.636Z,5.45
2023-04-26T17:28:51.295Z,5.45
2023-04-26T17:31:18.702Z,4.13
2023-04-26T17:33:46.256Z,4.72
2023-04-26T17:36:13.633Z,4.78
2023-04-26T17:38:41.108Z,5.43
2023-04-26T17:41:08.543Z,4.30
2023-04-26T17:43:35.921Z,5.15
2023-04-26T17:46:03.473Z,4.90
2023-04-26T17:48:31.122Z,5.20
2023-04-26T17:50:58.421Z,6.00
2023-04-26T17:53:26.524Z,4.95
2023-04-26T17:55:53.988Z,5.35
2023-04-26T17:58:21.774Z,4.40
2023-04-26T18:00:52.457Z,5.35
2023-04-26T18:03:20.588Z,5.65
2023-04-26T18:06:14.184Z,5.03
2023-04-26T18:08:42.097Z,5.50
2023-04-26T18:11:09.584Z,5.57
2023-04-26T18:13:36.879Z,5.00
2023-04-26T18:16:04.481Z,5.57
2023-04-26T18:18:31.945Z,5.63
2023-04-26T18:20:59.347Z,5.40
2023-04-26T18:23:26.862Z,5.38
2023-04-26T18:25:54.131Z,6.25
2023-04-26T18:28:22.160Z,6.72
2023-04-26T18:30:49.467Z,6.53
2023-04-26T18:33:17.684Z,5.63
2023-04-26T18:35:45.130Z,5.65
2023-04-26T18:38:12.461Z,6.40
2023-04-26T18:40:44.154Z,6.22
2023-04-26T18:43:11.869Z,6.13
2023-04-26T18:45:39.322Z,6.45
2023-04-26T18:48:07.196Z,6.20
2023-04-26T18:50:35.040Z,6.22
2023-04-26T18:53:02.432Z,6.28
2023-04-26T18:55:30.027Z,6.45
2023-04-26T18:57:58.168Z,6.43
2023-04-26T19:00:59.614Z,7.15
2023-04-26T19:03:27.336Z,6.68
2023-04-26T19:05:55.634Z,7.35
2023-04-26T19:08:25.040Z,7.45
2023-04-26T19:10:52.986Z,7.60
2023-04-26T19:13:20.931Z,6.72
2023-04-26T19:15:48.684Z,5.97
2023-04-26T19:18:18.080Z,6.78
2023-04-26T19:20:45.830Z,7.20
2023-04-26T19:23:13.421Z,6.93
2023-04-26T19:25:41.095Z,8.00
2023-04-26T19:28:08.456Z,7.68
2023-04-26T19:30:36.436Z,6.75
2023-04-26T19:33:04.020Z,7.20
2023-04-26T19:35:31.482Z,7.45
2023-04-26T19:38:00.713Z,7.68
2023-04-26T19:40:28.451Z,7.40
2023-04-26T19:42:55.810Z,8.80
2023-04-26T19:45:24.585Z,7.65
2023-04-26T19:47:52.546Z,7.35
2023-04-26T19:50:19.869Z,7.45
2023-04-26T19:52:47.224Z,7.53
2023-04-26T19:55:15.020Z,8.93
2023-04-26T19:57:42.454Z,7.50
2023-04-26T20:00:11.663Z,7.70
2023-04-26T20:02:39.053Z,8.15
2023-04-26T20:05:07.388Z,7.63
2023-04-26T20:07:34.924Z,8.75
2023-04-26T20:10:02.568Z,8.00
2023-04-26T20:12:31.507Z,8.20
2023-04-26T20:14:59.220Z,9.80
2023-04-26T20:17:26.782Z,9.15
2023-04-26T20:19:54.215Z,8.20
2023-04-26T20:22:21.854Z,9.43
2023-04-26T20:24:49.294Z,9.38
2023-04-26T20:27:16.641Z,8.45
2023-04-26T20:29:46.530Z,8.52
2023-04-26T20:32:14.106Z,8.23
2023-04-26T20:34:41.493Z,9.35
2023-04-26T20:37:08.902Z,8.70
2023-04-26T20:39:36.760Z,9.18
2023-04-26T20:42:04.386Z,8.68
2023-04-26T20:44:32.323Z,8.55
2023-04-26T20:46:59.895Z,9.23
2023-04-26T20:49:28.169Z,8.60
2023-04-26T20:51:55.583Z,7.95
2023-04-26T20:54:23.009Z,8.20
2023-04-26T20:56:51.064Z,8.57
2023-04-26T20:59:19.750Z,8.25
2023-04-26T21:01:47.123Z,8.50
2023-04-26T21:04:14.693Z,7.60
2023-04-26T21:06:42.120Z,8.57
2023-04-26T21:09:09.860Z,9.55
2023-04-26T21:11:37.555Z,8.55
2023-04-26T21:14:05.500Z,8.48
2023-04-26T21:16:32.907Z,8.95
2023-04-26T21:19:00.380Z,9.27
2023-04-26T21:21:28.731Z,8.85
2023-04-26T21:23:56.269Z,9.38
2023-04-26T21:26:23.606Z,9.43
2023-04-26T21:28:51.054Z,8.95
2023-04-26T21:31:18.974Z,7.88
2023-04-26T21:33:49.564Z,9.45
2023-04-26T21:36:16.961Z,8.55
2023-04-26T21:38:44.390Z,8.95
2023-04-26T21:41:11.980Z,9.77
2023-04-26T21:43:39.678Z,7.60
2023-04-26T21:46:08.240Z,8.23
2023-04-26T21:48:35.882Z,9.00
2023-04-26T21:51:03.354Z,8.77
2023-04-26T21:53:30.810Z,8.23
2023-04-26T21:55:58.677Z,8.35
2023-04-26T21:58:26.021Z,7.70
2023-04-26T22:00:53.668Z,8.25
2023-04-26T22:03:21.952Z,8.18
2023-04-26T22:05:49.536Z,9.02
2023-04-26T22:08:16.895Z,7.63
2023-04-26T22:10:44.317Z,8.23
2023-04-26T22:13:11.610Z,8.30
2023-04-26T22:15:38.914Z,8.00
2023-04-26T22:18:06.424Z,8.15
2023-04-26T22:20:33.772Z,8.32
2023-04-26T22:23:01.139Z,7.65
2023-04-26T22:25:28.535Z,8.23
2023-04-26T22:27:56.067Z,7.72
2023-04-26T22:30:25.324Z,8.35
2023-04-26T22:32:55.816Z,8.10
2023-04-26T22:35:24.600Z,7.57
2023-04-26T22:37:52.389Z,7.63
2023-04-26T22:40:20.656Z,7.47
2023-04-26T22:42:47.999Z,7.32
2023-04-26T22:45:15.544Z,8.25
2023-04-26T22:47:42.965Z,7.93
2023-04-26T22:50:11.195Z,8.50
2023-04-26T22:52:38.588Z,7.90
2023-04-26T22:55:07.032Z,7.18
2023-04-26T22:57:34.399Z,8.32
2023-04-26T23:00:01.818Z,8.57
2023-04-26T23:02:29.364Z,8.43
2023-04-26T23:04:57.312Z,6.78
2023-04-26T23:07:24.694Z,8.40
2023-04-26T23:09:52.097Z,8.57
2023-04-26T23:12:20.201Z,7.55
2023-04-26T23:14:48.811Z,8.10
2023-04-26T23:17:16.405Z,8.52
2023-04-26T23:19:43.932Z,8.77
2023-04-26T23:22:11.413Z,9.60
2023-04-26T23:24:38.831Z,9.38
2023-04-26T23:27:06.280Z,10.00
2023-04-26T23:29:33.638Z,11.05
2023-04-26T23:32:01.179Z,9.45
2023-04-26T23:34:28.618Z,10.73
2023-04-26T23:37:12.333Z,10.98
2023-04-26T23:39:48.288Z,10.00
2023-04-26T23:42:15.681Z,10.20
2023-04-26T23:44:43.144Z,10.30
2023-04-26T23:47:11.082Z,10.13
2023-04-26T23:49:38.405Z,9.00
2023-04-26T23:52:06.358Z,9.27
2023-04-26T23:54:33.673Z,10.10
2023-04-26T23:57:01.143Z,8.73
2023-04-26T23:59:28.654Z,8.55
